»·PEaware :: ASA515 KPDX-KRDM

ASA515 :: KPDX-KRDM

FLIGHT INFORMATION

Flight Status: Arrived
Operator:
Alaska Airlines
More flights by this operator :: More flights under this callsign
Pilot: Doug L. (8712)
Aircraft: BOEING 737-300
(B733)
More flights by this aircraft type
Origin: KPDX Portland Intl
United States
Destination: KRDM Roberts
United States
More flights between these airports :: More routes between these airports
Route: +CASCD2 DSD
File this flight plan on PilotEdge
Remarks:
Altitude:
(Current/Filed)
17,000ft
Speed:
(Current/Filed)
300kts
Departed: 06-Oct-18 02:04 PM
Arrived: 06-Oct-18 02:33 PM
Distance/Time
Traveled:
101nm/0:28
Distance/Time
To Go:
Arrived

Flight Plot

Page will automatically refresh every two minutes.

Flight plan parsing failed; only flown route is shown


Map Options




Map Legend


Flown Route
Filed Route
Departure Airport
Arrival Airport
Navaid (VOR, NDB)
Fix

Horizontal Profiles

Position Reports

Time Latitude Longitude Heading Altitude Ground
Speed
06-Oct-18 13:40 45.587813 -122.594861 10 36ft 0kts
06-Oct-18 13:41 45.587813 -122.594861 10 36ft 0kts
06-Oct-18 13:42 45.587813 -122.594861 10 36ft 0kts
06-Oct-18 13:43 45.587813 -122.594861 10 36ft 0kts
06-Oct-18 13:44 45.587813 -122.594861 10 36ft 0kts
06-Oct-18 13:45 45.587813 -122.594861 10 36ft 0kts
06-Oct-18 13:46 45.587813 -122.594861 10 36ft 0kts
06-Oct-18 13:47 45.587813 -122.594861 10 36ft 0kts
06-Oct-18 13:48 45.587813 -122.594861 10 36ft 0kts
06-Oct-18 13:49 45.587813 -122.594861 10 36ft 0kts
06-Oct-18 13:50 45.587813 -122.594861 10 36ft 0kts
06-Oct-18 13:51 45.587813 -122.594861 10 36ft 0kts
06-Oct-18 13:52 45.587813 -122.594861 10 36ft 0kts
06-Oct-18 13:53 45.587813 -122.594861 10 36ft 0kts
06-Oct-18 13:54 45.587731 -122.594883 10 36ft 0kts
06-Oct-18 13:55 45.587214 -122.595024 11 36ft 0kts
06-Oct-18 13:56 45.587041 -122.595079 12 36ft 0kts
06-Oct-18 13:57 45.587041 -122.595079 12 36ft 0kts
06-Oct-18 13:58 45.587041 -122.595079 12 36ft 0kts
06-Oct-18 13:59 45.587041 -122.595079 12 36ft 0kts
06-Oct-18 14:00 45.587041 -122.595079 12 36ft 0kts
06-Oct-18 14:01 45.587041 -122.595079 12 36ft 0kts
06-Oct-18 14:02 45.586246 -122.593676 128 36ft 24kts
06-Oct-18 14:03 45.582388 -122.585497 119 36ft 28kts
06-Oct-18 14:04 45.581559 -122.583534 142 36ft 0kts
06-Oct-18 14:05 45.580710 -122.583945 220 36ft 2kts
06-Oct-18 14:06 45.590590 -122.610189 299 421ft 189kts
06-Oct-18 14:07 45.621648 -122.682440 300 3559ft 260kts
06-Oct-18 14:08 45.654928 -122.764719 303 7834ft 267kts
06-Oct-18 14:09 45.664998 -122.858938 257 11488ft 297kts
06-Oct-18 14:10 45.615520 -122.940110 188 14044ft 366kts
06-Oct-18 14:11 45.524652 -122.886462 138 16258ft 405kts
06-Oct-18 14:12 45.462022 -122.771182 124 17037ft 396kts
06-Oct-18 14:13 45.394799 -122.664068 126 17006ft 393kts
06-Oct-18 14:14 45.326591 -122.558044 126 17012ft 393kts
06-Oct-18 14:15 45.258151 -122.452166 126 17007ft 393kts
06-Oct-18 14:16 45.190178 -122.347428 127 17008ft 393kts
06-Oct-18 14:17 45.112763 -122.259443 142 17012ft 398kts
06-Oct-18 14:18 45.028516 -122.176863 141 17002ft 400kts
06-Oct-18 14:19 44.944039 -122.093443 141 17001ft 401kts
06-Oct-18 14:20 44.860122 -122.011042 141 16997ft 401kts
06-Oct-18 14:21 44.775574 -121.928239 141 16469ft 397kts
06-Oct-18 14:22 44.696149 -121.850683 141 15349ft 362kts
06-Oct-18 14:23 44.622185 -121.778628 141 14238ft 346kts
06-Oct-18 14:24 44.549851 -121.708394 142 13297ft 338kts
06-Oct-18 14:25 44.478563 -121.641233 154 12361ft 333kts
06-Oct-18 14:26 44.398336 -121.605773 161 10825ft 324kts
06-Oct-18 14:27 44.320321 -121.571532 162 9267ft 316kts
06-Oct-18 14:28 44.256120 -121.515881 132 8197ft 287kts
06-Oct-18 14:29 44.205013 -121.445455 133 6811ft 273kts
06-Oct-18 14:30 44.168180 -121.375252 74 5689ft 220kts
06-Oct-18 14:31 44.189587 -121.312088 59 4990ft 172kts
06-Oct-18 14:32 44.206393 -121.267042 54 5039ft 151kts
06-Oct-18 14:33 44.227681 -121.215341 54 4387ft 159kts
06-Oct-18 14:34 44.246462 -121.169206 55 3197ft 135kts
06-Oct-18 14:35 44.255385 -121.150539 250 3078ft 12kts

Navigation Log

Ident Type
Flight plan parsing failed, navigation log unavailable